Terminal Aerodrome Forecast
Issued by NWS

Home | Current Version | Previous Version | Text Only | Print | Product List | Glossary On
Versions: 1 2 3 4 5 6 7 8 9 10 11 12 13
192
FTUS43 KJKL 271721
TAFSJS
TAF
KSJS 271721Z 2718/2818 22004KT P6SM SCT100
     FM272100 18004KT P6SM VCTS BKN050CB
     FM280400 00000KT P6SM VCSH BKN040
     FM280600 00000KT P6SM BKN050
     FM281500 00000KT P6SM SCT250=

USA.gov is the U.S. government's official web portal to all federal, state and local government web resources and services.